createdAt,value
2019-03-06T00:04:52.145Z,42.43
2019-03-06T00:09:56.155Z,42.93
2019-03-06T00:15:00.394Z,42.50
2019-03-06T00:20:04.605Z,28.50
2019-03-06T00:25:08.678Z,29.70
2019-03-06T00:30:12.991Z,41.83
2019-03-06T00:35:17.184Z,39.23
2019-03-06T00:40:21.650Z,37.33
2019-03-06T00:45:25.843Z,32.40
2019-03-06T00:50:29.814Z,34.77
2019-03-06T00:55:34.080Z,36.70
2019-03-06T01:00:37.967Z,33.13
2019-03-06T01:05:41.951Z,55.97
2019-03-06T01:10:45.941Z,52.40
2019-03-06T01:15:49.916Z,55.77
2019-03-06T01:20:53.902Z,53.03
2019-03-06T01:25:58.021Z,55.63
2019-03-06T01:31:01.996Z,46.67
2019-03-06T01:36:06.155Z,39.77
2019-03-06T01:41:10.146Z,41.00
2019-03-06T01:46:14.142Z,45.50
2019-03-06T01:51:18.151Z,58.63
2019-03-06T01:56:22.119Z,59.50
2019-03-06T02:01:26.126Z,48.68
2019-03-06T02:06:30.185Z,70.27
2019-03-06T02:11:34.125Z,60.87
2019-03-06T02:16:38.139Z,44.37
2019-03-06T02:21:42.117Z,37.10
2019-03-06T02:26:46.206Z,46.70
2019-03-06T02:31:50.165Z,63.20
2019-03-06T02:36:54.097Z,63.97
2019-03-06T02:41:58.083Z,61.07
2019-03-06T02:47:02.072Z,58.00
2019-03-06T02:52:06.017Z,48.17
2019-03-06T02:57:09.992Z,55.77
2019-03-06T03:02:13.996Z,50.73
2019-03-06T03:07:18.003Z,49.40
2019-03-06T03:12:22.025Z,50.43
2019-03-06T03:17:26.037Z,63.73
2019-03-06T03:22:30.010Z,48.97
2019-03-06T03:27:34.038Z,53.20
2019-03-06T03:32:38.267Z,62.83
2019-03-06T03:37:42.205Z,52.47
2019-03-06T03:42:46.592Z,57.00
2019-03-06T03:47:50.578Z,53.77
2019-03-06T03:52:54.601Z,54.77
2019-03-06T03:57:58.513Z,61.73
2019-03-06T04:03:02.515Z,52.10
2019-03-06T04:08:06.534Z,70.13
2019-03-06T04:13:10.551Z,53.67
2019-03-06T04:18:14.539Z,52.77
2019-03-06T04:23:18.606Z,56.20
2019-03-06T04:28:22.614Z,59.90
2019-03-06T04:33:26.608Z,57.17
2019-03-06T04:38:30.722Z,63.23
2019-03-06T04:43:34.682Z,66.80
2019-03-06T04:48:38.721Z,72.37
2019-03-06T04:53:42.714Z,59.47
2019-03-06T04:58:46.657Z,57.03
2019-03-06T05:03:50.690Z,47.77
2019-03-06T05:08:54.834Z,56.07
2019-03-06T05:13:58.816Z,63.77
2019-03-06T05:19:03.066Z,58.87
2019-03-06T05:24:07.075Z,54.33
2019-03-06T05:29:11.418Z,73.27
2019-03-06T05:34:15.343Z,69.80
2019-03-06T05:39:19.320Z,67.93
2019-03-06T05:44:23.306Z,74.63
2019-03-06T05:49:27.300Z,70.60
2019-03-06T05:54:31.205Z,46.30
2019-03-06T05:59:35.378Z,46.13
2019-03-06T06:04:39.454Z,69.43
2019-03-06T06:09:43.705Z,73.17
2019-03-06T06:14:47.691Z,54.40
2019-03-06T06:19:51.665Z,68.40
2019-03-06T06:24:55.671Z,71.40
2019-03-06T06:29:59.906Z,73.63
2019-03-06T06:35:04.144Z,64.53
2019-03-06T06:40:08.502Z,84.77
2019-03-06T06:45:12.650Z,64.23
2019-03-06T06:50:16.675Z,55.07
2019-03-06T06:55:35.001Z,54.80
2019-03-06T07:00:51.475Z,51.43
2019-03-06T07:05:55.460Z,47.13
2019-03-06T07:10:59.499Z,54.00
2019-03-06T07:16:03.766Z,54.97
2019-03-06T07:21:07.920Z,52.40
2019-03-06T07:26:11.864Z,58.93
2019-03-06T07:31:15.854Z,71.37
2019-03-06T07:36:19.934Z,63.67
2019-03-06T07:41:24.015Z,73.57
2019-03-06T07:46:27.950Z,68.83
2019-03-06T07:51:32.030Z,71.17
2019-03-06T07:56:36.194Z,58.63
2019-03-06T08:01:51.069Z,52.33
2019-03-06T08:06:55.118Z,47.83
2019-03-06T08:11:59.105Z,55.10
2019-03-06T08:17:03.068Z,58.90
2019-03-06T08:22:15.887Z,47.67
2019-03-06T08:27:19.861Z,24.30
2019-03-06T08:32:23.895Z,29.53
2019-03-06T08:37:27.805Z,29.40
2019-03-06T08:42:32.624Z,36.20
2019-03-06T08:47:36.873Z,47.63
2019-03-06T08:52:40.865Z,38.40
2019-03-06T08:57:46.924Z,32.00
2019-03-06T09:02:59.594Z,24.57
2019-03-06T09:08:03.676Z,32.63
2019-03-06T09:13:07.722Z,27.37
2019-03-06T09:18:11.721Z,31.30
2019-03-06T09:23:22.868Z,41.33
2019-03-06T09:28:21.672Z,26.03
2019-03-06T09:33:25.841Z,24.17
2019-03-06T09:38:29.835Z,27.73
2019-03-06T09:43:34.173Z,18.93
2019-03-06T09:48:38.202Z,13.33
2019-03-06T09:53:42.372Z,16.97
2019-03-06T09:58:46.367Z,11.53
2019-03-06T10:03:50.689Z,9.50
2019-03-06T10:08:57.822Z,16.90
2019-03-06T10:14:01.979Z,16.63
2019-03-06T10:19:06.157Z,9.93
2019-03-06T10:24:10.446Z,11.90
2019-03-06T10:29:14.501Z,16.97
2019-03-06T10:34:18.706Z,12.30
2019-03-06T10:39:22.705Z,11.33
2019-03-06T10:44:29.893Z,9.03
2019-03-06T10:49:32.360Z,7.67
2019-03-06T10:54:44.314Z,13.13
2019-03-06T10:59:42.419Z,11.07
2019-03-06T11:04:46.403Z,13.63
2019-03-06T11:09:50.406Z,13.15
2019-03-06T11:14:54.422Z,18.43
2019-03-06T11:19:58.508Z,11.13
2019-03-06T11:25:02.618Z,11.40
2019-03-06T11:30:12.070Z,11.60
2019-03-06T11:35:17.085Z,12.50
2019-03-06T11:40:21.281Z,16.17
2019-03-06T11:45:25.516Z,21.87
2019-03-06T11:50:30.770Z,15.13
2019-03-06T11:55:35.118Z,11.77
2019-03-06T12:00:41.049Z,11.97
2019-03-06T12:05:45.115Z,13.33
2019-03-06T12:10:49.136Z,14.97
2019-03-06T12:15:53.151Z,12.60
2019-03-06T12:20:57.044Z,9.87
2019-03-06T12:26:02.489Z,11.80
2019-03-06T12:31:08.760Z,12.23
2019-03-06T12:36:13.810Z,13.50
2019-03-06T12:41:18.015Z,14.33
2019-03-06T12:46:24.754Z,12.10
2019-03-06T12:51:29.354Z,13.10
2019-03-06T12:56:33.630Z,7.03
2019-03-06T13:01:40.516Z,16.60
2019-03-06T13:06:44.623Z,11.23
2019-03-06T13:11:49.182Z,11.10
2019-03-06T13:16:53.596Z,9.07
2019-03-06T13:21:57.724Z,7.57
2019-03-06T13:27:01.886Z,7.10
2019-03-06T13:32:11.774Z,8.37
2019-03-06T13:37:12.466Z,7.20
2019-03-06T13:42:16.563Z,8.63
2019-03-06T13:47:20.730Z,6.93
2019-03-06T13:52:24.712Z,13.00
2019-03-06T13:57:29.022Z,8.67
2019-03-06T14:02:33.169Z,8.10
2019-03-06T14:07:37.167Z,5.40
2019-03-06T14:12:41.066Z,3.70
2019-03-06T14:17:45.951Z,3.73
2019-03-06T14:22:50.118Z,1.37
2019-03-06T14:27:54.210Z,1.83
2019-03-06T14:32:58.382Z,3.70
2019-03-06T14:38:03.808Z,4.77
2019-03-06T14:43:08.117Z,3.07
2019-03-06T14:48:12.245Z,4.10
2019-03-06T14:53:16.634Z,4.70
2019-03-06T14:58:20.858Z,8.47
2019-03-06T15:03:24.977Z,5.00
2019-03-06T15:08:30.610Z,5.27
2019-03-06T15:13:34.765Z,9.87
2019-03-06T15:18:39.938Z,11.50
2019-03-06T15:23:43.830Z,6.97
2019-03-06T15:28:48.238Z,9.23
2019-03-06T15:33:55.310Z,8.97
2019-03-06T15:39:00.540Z,4.23
2019-03-06T15:44:04.510Z,5.03
2019-03-06T15:49:10.362Z,4.83
2019-03-06T15:54:17.676Z,5.83
2019-03-06T15:59:21.722Z,6.77
2019-03-06T16:04:25.741Z,8.00
2019-03-06T16:09:29.692Z,4.37
2019-03-06T16:14:33.816Z,8.47
2019-03-06T16:19:37.741Z,11.70
2019-03-06T16:24:41.722Z,6.20
2019-03-06T16:29:45.802Z,4.70
2019-03-06T16:34:52.756Z,7.77
2019-03-06T16:39:57.696Z,4.47
2019-03-06T16:45:01.651Z,6.63
2019-03-06T16:50:13.486Z,3.47
2019-03-06T16:55:13.111Z,8.13
2019-03-06T17:00:20.454Z,9.17
2019-03-06T17:05:25.694Z,6.53
2019-03-06T17:10:30.241Z,7.80
2019-03-06T17:15:34.359Z,12.13
2019-03-06T17:20:38.548Z,13.97
2019-03-06T17:25:42.516Z,13.97
2019-03-06T17:30:46.958Z,4.90
2019-03-06T17:35:51.097Z,7.93
2019-03-06T17:40:56.017Z,10.83
2019-03-06T17:46:00.502Z,10.17
2019-03-06T17:51:04.831Z,11.00
2019-03-06T17:56:08.867Z,10.40
2019-03-06T18:01:14.960Z,10.70
2019-03-06T18:06:18.561Z,9.70
2019-03-06T18:11:22.501Z,9.80
2019-03-06T18:16:26.478Z,9.70
2019-03-06T18:21:30.522Z,9.70
2019-03-06T18:26:34.506Z,11.20
2019-03-06T18:31:38.436Z,6.80
2019-03-06T18:36:42.466Z,15.43
2019-03-06T18:41:47.838Z,11.13
2019-03-06T18:46:51.851Z,11.23
2019-03-06T18:51:55.982Z,9.33
2019-03-06T18:57:01.015Z,16.70
2019-03-06T19:02:04.994Z,11.43
2019-03-06T19:07:08.998Z,13.10
2019-03-06T19:12:13.285Z,6.33
2019-03-06T19:17:17.317Z,10.33
2019-03-06T19:22:21.572Z,9.93
2019-03-06T19:27:28.676Z,9.37
2019-03-06T19:32:35.641Z,8.07
2019-03-06T19:37:39.635Z,10.83
2019-03-06T19:42:43.756Z,5.93
2019-03-06T19:47:50.763Z,7.97
2019-03-06T19:52:55.080Z,8.43
2019-03-06T19:58:01.275Z,7.57
2019-03-06T20:03:07.110Z,9.37
2019-03-06T20:08:12.062Z,10.50
2019-03-06T20:13:16.058Z,9.57
2019-03-06T20:18:20.007Z,8.37
2019-03-06T20:23:23.970Z,12.20
2019-03-06T20:28:27.940Z,12.50
2019-03-06T20:33:33.526Z,11.63
2019-03-06T20:38:40.412Z,10.43
2019-03-06T20:43:44.562Z,11.97
2019-03-06T20:48:48.560Z,11.27
2019-03-06T20:53:52.611Z,11.73
2019-03-06T20:58:57.846Z,17.63
2019-03-06T21:04:02.177Z,17.07
2019-03-06T21:09:06.941Z,9.77
2019-03-06T21:14:10.931Z,11.70
2019-03-06T21:19:14.906Z,9.10
2019-03-06T21:24:19.177Z,9.33
2019-03-06T21:29:23.221Z,12.17
2019-03-06T21:34:27.687Z,13.27
2019-03-06T21:39:33.985Z,14.67
2019-03-06T21:44:38.081Z,13.53
2019-03-06T21:49:42.099Z,10.50
2019-03-06T21:54:46.126Z,10.40
2019-03-06T21:59:50.367Z,22.57
2019-03-06T22:04:54.392Z,11.07
2019-03-06T22:09:58.481Z,21.03
2019-03-06T22:15:02.422Z,27.57
2019-03-06T22:20:07.190Z,11.10
2019-03-06T22:25:11.621Z,14.50
2019-03-06T22:30:16.910Z,10.87
2019-03-06T22:35:21.030Z,8.37
2019-03-06T22:40:25.036Z,9.63
2019-03-06T22:45:29.040Z,14.23
2019-03-06T22:50:33.061Z,13.30
2019-03-06T22:55:37.050Z,13.70
2019-03-06T23:00:52.966Z,11.50
2019-03-06T23:05:57.118Z,10.20
2019-03-06T23:11:01.336Z,11.37
2019-03-06T23:16:05.302Z,14.97
2019-03-06T23:21:09.299Z,13.60
2019-03-06T23:26:13.626Z,11.00
2019-03-06T23:31:17.516Z,17.27
2019-03-06T23:36:21.536Z,13.30
2019-03-06T23:41:25.522Z,11.10
2019-03-06T23:46:29.602Z,11.77
2019-03-06T23:51:33.484Z,12.40
2019-03-06T23:56:37.383Z,11.70
